Time;durP1;ratioP1;P1;durP2;ratioP2;P2;SDS_P1;SDS_P2;PMS_P1;PMS_P2;Temp;Humidity;BMP_temperature;BMP_pressure;BME280_temperature;BME280_humidity;BME280_pressure;Samples;Min_cycle;Max_cycle;Signal;HPM_P1;HPM_P2
2023/09/26 00:01:41;;;;;;;11.85;10.65;;;14.50;99.90;;;;;;4958331;28;89998;-37
2023/09/26 00:04:07;;;;;;;11.85;10.38;;;14.50;99.90;;;;;;4958647;28;88827;-33
2023/09/26 00:06:33;;;;;;;12.20;10.50;;;14.50;99.90;;;;;;4958968;28;89445;-33
2023/09/26 00:08:59;;;;;;;14.38;9.55;;;14.40;99.90;;;;;;4958379;28;88529;-32
2023/09/26 00:11:24;;;;;;;13.02;11.65;;;14.40;99.90;;;;;;4959818;28;90260;-30
2023/09/26 00:13:50;;;;;;;11.77;10.05;;;14.30;99.90;;;;;;4958082;28;89898;-33
2023/09/26 00:16:16;;;;;;;13.27;11.13;;;14.30;99.90;;;;;;4958334;28;90600;-38
2023/09/26 00:18:42;;;;;;;14.40;11.65;;;14.30;99.90;;;;;;4958732;28;89774;-38
2023/09/26 00:21:10;;;;;;;14.35;12.88;;;14.20;99.90;;;;;;4958675;28;89455;-31
2023/09/26 00:23:35;;;;;;;14.07;12.32;;;14.20;99.90;;;;;;4958342;28;90353;-32
2023/09/26 00:26:03;;;;;;;13.88;12.70;;;14.20;99.90;;;;;;4957035;28;89188;-36
2023/09/26 00:28:30;;;;;;;14.77;11.75;;;14.10;99.90;;;;;;4959000;28;88340;-37
2023/09/26 00:30:56;;;;;;;12.80;11.73;;;14.10;99.90;;;;;;4958064;28;88763;-34
2023/09/26 00:33:22;;;;;;;12.40;11.30;;;14.10;99.90;;;;;;4956765;28;89582;-32
2023/09/26 00:35:48;;;;;;;13.85;12.57;;;14.10;99.90;;;;;;4957457;28;91947;-31
2023/09/26 00:38:14;;;;;;;12.98;11.63;;;14.10;99.90;;;;;;4957913;28;90190;-32
2023/09/26 00:40:40;;;;;;;13.68;12.23;;;14.10;99.90;;;;;;4957508;28;88692;-38
2023/09/26 00:43:06;;;;;;;13.02;11.30;;;14.00;99.90;;;;;;4958287;28;90802;-33
2023/09/26 00:45:32;;;;;;;14.80;12.95;;;13.90;99.90;;;;;;4957638;28;88981;-38
2023/09/26 00:47:59;;;;;;;13.43;12.25;;;13.90;99.90;;;;;;4961537;28;88770;-30
2023/09/26 00:50:25;;;;;;;12.57;11.27;;;13.80;99.90;;;;;;4961164;28;90790;-34
2023/09/26 00:52:53;;;;;;;13.88;12.52;;;13.80;99.90;;;;;;4961782;28;90274;-30
2023/09/26 00:55:22;;;;;;;13.32;11.68;;;13.80;99.90;;;;;;4961286;28;89349;-32
2023/09/26 00:57:48;;;;;;;13.18;11.98;;;13.80;99.90;;;;;;4961100;28;90345;-32
2023/09/26 01:00:15;;;;;;;14.55;13.25;;;13.80;99.90;;;;;;4961622;28;90834;-34
2023/09/26 01:02:42;;;;;;;13.38;12.13;;;13.70;99.90;;;;;;4959739;28;89669;-35
2023/09/26 01:05:08;;;;;;;15.23;13.80;;;13.70;99.90;;;;;;4960881;28;90466;-35
2023/09/26 01:07:35;;;;;;;15.15;13.63;;;13.70;99.90;;;;;;4961616;28;89452;-31
2023/09/26 01:10:08;;;;;;;13.18;11.88;;;13.70;99.90;;;;;;4960914;28;89491;-30
2023/09/26 01:12:35;;;;;;;12.80;11.60;;;13.70;99.90;;;;;;4960485;28;89221;-34
2023/09/26 01:15:01;;;;;;;14.52;13.23;;;13.60;99.90;;;;;;4961115;28;89347;-35
2023/09/26 01:17:30;;;;;;;14.75;13.45;;;13.60;99.90;;;;;;4961006;28;89834;-34
2023/09/26 01:19:56;;;;;;;17.73;12.30;;;13.50;99.90;;;;;;4960678;28;90585;-40
2023/09/26 01:22:26;;;;;;;14.73;13.27;;;13.40;99.90;;;;;;4960865;28;89278;-32
2023/09/26 01:24:52;;;;;;;14.07;12.60;;;13.40;99.90;;;;;;4960790;28;89473;-37
2023/09/26 01:27:18;;;;;;;13.40;12.27;;;13.40;99.90;;;;;;4960609;28;89709;-34
2023/09/26 01:29:46;;;;;;;15.75;14.23;;;13.40;99.90;;;;;;4960105;28;89593;-33
2023/09/26 01:32:12;;;;;;;13.73;12.38;;;13.40;99.90;;;;;;4959926;28;89935;-35
2023/09/26 01:34:37;;;;;;;15.73;14.05;;;13.30;99.90;;;;;;4960817;28;88682;-32
2023/09/26 01:37:03;;;;;;;19.30;12.98;;;13.30;99.90;;;;;;4960069;28;89566;-32
2023/09/26 01:39:31;;;;;;;13.77;12.45;;;13.20;99.90;;;;;;4960706;28;92034;-33
2023/09/26 01:41:57;;;;;;;;;;;13.20;99.90;;;;;;4960693;28;90830;-36
2023/09/26 01:44:23;;;;;;;14.82;12.93;;;13.10;99.90;;;;;;4962907;28;89235;-31
2023/09/26 01:46:48;;;;;;;15.45;13.95;;;13.00;99.90;;;;;;4960525;28;89096;-37
2023/09/26 01:49:14;;;;;;;15.23;13.77;;;13.00;99.90;;;;;;4960043;28;90342;-31
2023/09/26 01:51:39;;;;;;;14.55;12.73;;;12.90;99.90;;;;;;4959877;28;90461;-36
2023/09/26 01:54:05;;;;;;;15.98;14.40;;;13.00;99.90;;;;;;4959576;28;89728;-36
2023/09/26 01:56:32;;;;;;;13.55;12.35;;;12.90;99.90;;;;;;4960751;28;89509;-31
2023/09/26 01:58:58;;;;;;;15.00;13.43;;;12.90;99.90;;;;;;4959017;28;91707;-33
2023/09/26 02:01:23;;;;;;;16.05;14.50;;;12.90;99.90;;;;;;4960365;28;89953;-33
2023/09/26 02:03:49;;;;;;;14.98;13.48;;;12.90;99.90;;;;;;4960169;28;90187;-35
2023/09/26 02:06:14;;;;;;;14.25;12.95;;;12.90;99.90;;;;;;4960018;28;90849;-33
2023/09/26 02:08:40;;;;;;;14.63;13.05;;;12.80;99.90;;;;;;4959729;28;90312;-32
2023/09/26 02:11:05;;;;;;;14.40;12.90;;;12.80;99.90;;;;;;4960482;28;90049;-30
2023/09/26 02:13:32;;;;;;;14.82;13.30;;;12.80;99.90;;;;;;4959658;28;90326;-37
2023/09/26 02:15:57;;;;;;;13.63;11.82;;;12.80;99.90;;;;;;4959199;28;89875;-32
2023/09/26 02:18:24;;;;;;;13.95;12.65;;;12.80;99.90;;;;;;4959996;28;90533;-31
2023/09/26 02:20:50;;;;;;;12.88;11.65;;;12.80;99.90;;;;;;4960201;28;88491;-31
2023/09/26 02:23:16;;;;;;;13.93;12.65;;;12.80;99.90;;;;;;4959085;28;90203;-39
2023/09/26 02:25:48;;;;;;;14.88;13.52;;;12.80;99.90;;;;;;4960090;28;89961;-35
2023/09/26 02:28:14;;;;;;;15.85;14.20;;;12.80;99.90;;;;;;4960038;28;88897;-34
2023/09/26 02:30:41;;;;;;;18.52;13.80;;;12.80;99.90;;;;;;4960101;28;89627;-30
2023/09/26 02:33:06;;;;;;;14.43;12.63;;;12.80;99.90;;;;;;4960109;28;89673;-33
2023/09/26 02:35:32;;;;;;;15.02;13.45;;;12.80;99.90;;;;;;4959432;28;89915;-31
2023/09/26 02:37:58;;;;;;;14.63;13.20;;;12.80;99.90;;;;;;4959489;28;90330;-32
2023/09/26 02:40:23;;;;;;;14.65;13.15;;;12.80;99.90;;;;;;4958915;28;90959;-39
2023/09/26 02:42:50;;;;;;;14.73;12.50;;;12.80;99.90;;;;;;4959751;28;90157;-34
2023/09/26 02:45:16;;;;;;;15.60;14.20;;;12.80;99.90;;;;;;4959346;28;89693;-36
2023/09/26 02:47:42;;;;;;;19.52;15.07;;;12.80;99.90;;;;;;4959879;28;90754;-33
2023/09/26 02:50:08;;;;;;;15.18;13.48;;;12.70;99.90;;;;;;4959371;28;89502;-39
2023/09/26 02:52:34;;;;;;;13.52;11.95;;;12.60;99.90;;;;;;4958101;28;89689;-31
2023/09/26 02:55:00;;;;;;;17.08;14.90;;;12.60;99.90;;;;;;4959414;28;89000;-38
2023/09/26 02:57:26;;;;;;;15.90;14.07;;;12.60;99.90;;;;;;4960201;28;90625;-34
2023/09/26 02:59:52;;;;;;;15.93;14.52;;;12.60;99.90;;;;;;4959297;28;88370;-37
2023/09/26 03:02:17;;;;;;;15.02;13.43;;;12.60;99.90;;;;;;4959381;28;89916;-30
2023/09/26 03:04:48;;;;;;;14.13;12.30;;;12.60;99.90;;;;;;4959347;28;89264;-40
2023/09/26 03:07:14;;;;;;;15.48;13.90;;;12.60;99.90;;;;;;4959229;28;90897;-35
2023/09/26 03:09:40;;;;;;;14.38;12.93;;;12.60;99.90;;;;;;4957960;28;89537;-38
2023/09/26 03:12:06;;;;;;;14.60;13.27;;;12.60;99.90;;;;;;4958734;28;90261;-34
2023/09/26 03:14:32;;;;;;;14.85;13.52;;;12.60;99.90;;;;;;4959136;28;89374;-32
2023/09/26 03:16:58;;;;;;;15.52;13.93;;;12.60;99.90;;;;;;4958869;28;89697;-34
2023/09/26 03:19:23;;;;;;;15.50;13.90;;;12.50;99.90;;;;;;4958850;28;91142;-37
2023/09/26 03:21:52;;;;;;;15.00;13.48;;;12.60;99.90;;;;;;4959654;28;90014;-31
2023/09/26 03:24:18;;;;;;;16.70;15.00;;;12.50;99.90;;;;;;4959375;28;88979;-33
2023/09/26 03:26:44;;;;;;;15.07;13.52;;;12.50;99.90;;;;;;4958829;28;90474;-31
2023/09/26 03:29:10;;;;;;;14.88;13.38;;;12.50;99.90;;;;;;4958521;28;90627;-34
2023/09/26 03:31:38;;;;;;;15.75;14.18;;;12.40;99.90;;;;;;4958819;28;89543;-34
2023/09/26 03:34:03;;;;;;;11.65;7.78;;;12.40;99.90;;;;;;4958710;28;88629;-30
2023/09/26 03:36:29;;;;;;;17.13;14.48;;;12.40;99.90;;;;;;4958740;28;90397;-36
2023/09/26 03:38:55;;;;;;;14.60;13.13;;;12.40;99.90;;;;;;4958754;28;89804;-33
2023/09/26 03:41:20;;;;;;;16.83;13.88;;;12.40;99.90;;;;;;4958468;28;89388;-38
2023/09/26 03:43:46;;;;;;;14.15;12.77;;;12.30;99.90;;;;;;4958747;28;88153;-33
2023/09/26 03:46:12;;;;;;;16.17;14.48;;;12.40;99.90;;;;;;4958654;28;89003;-32
2023/09/26 03:48:37;;;;;;;15.88;13.70;;;12.30;99.90;;;;;;4958154;28;89911;-33
2023/09/26 03:51:13;;;;;;;15.52;14.02;;;12.30;99.90;;;;;;4958977;28;89944;-32
2023/09/26 03:53:40;;;;;;;16.02;14.25;;;12.30;99.90;;;;;;4958294;28;89960;-33
2023/09/26 03:56:06;;;;;;;10.38;9.38;;;12.20;99.90;;;;;;4957729;28;90541;-34
2023/09/26 03:58:33;;;;;;;15.75;13.45;;;12.20;99.90;;;;;;4959212;28;88918;-35
2023/09/26 04:01:12;;;;;;;16.13;14.57;;;12.10;99.90;;;;;;4958040;28;89360;-42
2023/09/26 04:03:43;;;;;;;16.33;14.77;;;12.10;99.90;;;;;;4958589;28;89083;-31
2023/09/26 04:06:11;;;;;;;16.58;14.85;;;12.10;99.90;;;;;;4954263;28;90397;-34
2023/09/26 04:08:37;;;;;;;15.10;13.60;;;12.10;99.90;;;;;;4938469;28;89834;-32
2023/09/26 04:11:03;;;;;;;15.10;12.65;;;12.10;99.90;;;;;;4938984;28;89401;-38
2023/09/26 04:13:28;;;;;;;16.30;14.70;;;12.10;99.90;;;;;;4938553;28;87960;-34
2023/09/26 04:15:54;;;;;;;15.30;13.70;;;12.10;99.90;;;;;;4938123;28;90545;-38
2023/09/26 04:18:21;;;;;;;14.88;13.38;;;12.10;99.90;;;;;;4938519;28;90532;-36
2023/09/26 04:20:46;;;;;;;14.25;12.88;;;12.10;99.90;;;;;;4938844;28;90116;-37
2023/09/26 04:23:12;;;;;;;17.55;13.63;;;12.10;99.90;;;;;;4941599;28;89209;-37
2023/09/26 04:25:37;;;;;;;15.68;14.15;;;12.10;99.90;;;;;;4942192;28;90455;-33
2023/09/26 04:28:04;;;;;;;14.77;12.98;;;12.10;99.90;;;;;;4941951;28;89875;-38
2023/09/26 04:30:33;;;;;;;14.38;12.88;;;12.10;99.90;;;;;;4942128;28;89694;-34
2023/09/26 04:32:59;;;;;;;14.45;13.10;;;12.10;99.90;;;;;;4942242;28;89687;-31
2023/09/26 04:35:24;;;;;;;13.82;12.57;;;12.10;99.90;;;;;;4942139;28;90306;-37
2023/09/26 04:37:50;;;;;;;15.57;13.98;;;12.10;99.90;;;;;;4940272;28;89456;-31
2023/09/26 04:40:17;;;;;;;14.55;13.15;;;12.10;99.90;;;;;;4941980;28;89677;-34
2023/09/26 04:42:49;;;;;;;16.23;14.05;;;12.00;99.90;;;;;;4940194;28;89768;-31
2023/09/26 04:45:15;;;;;;;17.08;15.30;;;12.00;99.90;;;;;;4941983;28;89259;-33
2023/09/26 04:47:41;;;;;;;16.70;14.07;;;12.00;99.90;;;;;;4941912;28;90398;-33
2023/09/26 04:50:07;;;;;;;16.63;14.88;;;12.00;99.90;;;;;;4941793;28;89178;-35
2023/09/26 04:52:33;;;;;;;20.63;17.10;;;11.90;99.90;;;;;;4941506;28;89910;-34
2023/09/26 04:54:59;;;;;;;16.50;14.90;;;11.90;99.90;;;;;;4941894;28;90319;-35
2023/09/26 04:57:25;;;;;;;18.27;15.98;;;11.90;99.90;;;;;;4940930;28;89628;-35
2023/09/26 04:59:50;;;;;;;17.05;15.40;;;11.90;99.90;;;;;;4941399;28;90133;-31
2023/09/26 05:02:16;;;;;;;18.00;15.88;;;11.90;99.90;;;;;;4940683;28;88403;-37
2023/09/26 05:04:42;;;;;;;17.23;15.70;;;11.80;99.90;;;;;;4940921;28;90247;-34
2023/09/26 05:07:09;;;;;;;16.20;14.68;;;11.80;99.90;;;;;;4955149;28;89512;-38
2023/09/26 05:09:36;;;;;;;16.53;14.83;;;11.80;99.90;;;;;;4960850;28;89951;-31
2023/09/26 05:12:02;;;;;;;17.67;14.50;;;11.90;99.90;;;;;;4960276;28;89166;-32
2023/09/26 05:14:28;;;;;;;15.52;14.02;;;11.80;99.90;;;;;;4961884;28;90129;-38
2023/09/26 05:16:54;;;;;;;16.45;14.70;;;11.80;99.90;;;;;;4960224;28;90214;-32
2023/09/26 05:19:19;;;;;;;15.55;13.95;;;11.80;99.90;;;;;;4961039;28;89520;-33
2023/09/26 05:21:45;;;;;;;18.08;15.65;;;11.80;99.90;;;;;;4960458;28;89158;-37
2023/09/26 05:24:10;;;;;;;18.75;15.60;;;11.70;99.90;;;;;;4960850;28;91005;-33
2023/09/26 05:26:37;;;;;;;17.48;15.70;;;11.80;99.90;;;;;;4960278;28;88585;-40
2023/09/26 05:29:03;;;;;;;17.73;14.18;;;11.80;99.90;;;;;;4960775;28;89615;-31
2023/09/26 05:31:30;;;;;;;14.65;8.40;;;11.80;99.90;;;;;;4960523;28;89350;-40
2023/09/26 05:33:56;;;;;;;17.27;15.48;;;11.90;99.90;;;;;;4960340;28;89858;-34
2023/09/26 05:36:22;;;;;;;11.07;8.88;;;11.90;99.90;;;;;;5011093;22;90657;-40
2023/09/26 05:38:48;;;;;;;17.15;15.55;;;11.90;99.90;;;;;;4961290;28;89345;-31
2023/09/26 05:41:13;;;;;;;15.95;14.40;;;11.90;99.90;;;;;;4960935;28;89352;-34
2023/09/26 05:43:39;;;;;;;17.80;14.18;;;12.00;99.90;;;;;;4960543;28;90507;-32
2023/09/26 05:46:05;;;;;;;18.65;16.65;;;12.00;99.90;;;;;;4959941;28;89249;-40
2023/09/26 05:48:30;;;;;;;17.33;15.55;;;12.00;99.90;;;;;;4961298;28;90364;-32
2023/09/26 05:51:00;;;;;;;17.92;15.25;;;12.00;99.90;;;;;;4960585;28;87639;-37
2023/09/26 05:53:26;;;;;;;17.23;15.25;;;12.10;99.90;;;;;;4955566;28;90171;-38
2023/09/26 05:55:52;;;;;;;17.00;15.30;;;12.00;99.90;;;;;;4937030;28;90568;-38
2023/09/26 05:58:19;;;;;;;18.40;15.82;;;12.10;99.90;;;;;;4939065;28;90577;-33
2023/09/26 06:00:46;;;;;;;20.25;17.13;;;12.10;99.90;;;;;;4937422;28;88425;-31
2023/09/26 06:03:12;;;;;;;20.83;16.95;;;12.10;99.90;;;;;;4938002;28;90171;-34
2023/09/26 06:05:38;;;;;;;19.23;17.13;;;12.20;99.90;;;;;;4938381;28;89430;-38
2023/09/26 06:08:04;;;;;;;20.33;17.25;;;12.20;99.90;;;;;;4937969;28;89958;-37
2023/09/26 06:10:30;;;;;;;19.98;15.48;;;12.20;99.90;;;;;;4937936;28;89860;-37
2023/09/26 06:12:55;;;;;;;22.88;16.60;;;12.10;99.90;;;;;;4938254;28;90236;-34
2023/09/26 06:15:22;;;;;;;17.17;15.43;;;12.10;99.90;;;;;;4937185;28;89737;-32
2023/09/26 06:17:48;;;;;;;16.08;14.38;;;12.10;99.90;;;;;;4938772;28;88634;-33
2023/09/26 06:20:14;;;;;;;23.67;16.27;;;12.10;99.90;;;;;;4937152;28;90293;-38
2023/09/26 06:22:39;;;;;;;17.70;15.82;;;12.20;99.90;;;;;;4937708;28;90562;-35
2023/09/26 06:25:05;;;;;;;19.10;15.15;;;12.10;99.90;;;;;;4937323;28;89486;-36
2023/09/26 06:27:35;;;;;;;18.30;15.95;;;12.20;99.90;;;;;;4937880;28;90624;-31
2023/09/26 06:30:02;;;;;;;19.05;15.02;;;12.20;99.90;;;;;;4937691;28;89780;-33
2023/09/26 06:32:27;;;;;;;17.58;15.73;;;12.20;99.90;;;;;;4938012;28;90094;-35
2023/09/26 06:34:59;;;;;;;17.92;16.02;;;12.30;99.90;;;;;;4938103;28;90079;-30
2023/09/26 06:37:25;;;;;;;17.38;15.55;;;12.30;99.90;;;;;;4937907;28;90032;-33
2023/09/26 06:39:51;;;;;;;23.65;17.13;;;12.40;99.90;;;;;;4937891;28;88169;-37
2023/09/26 06:42:17;;;;;;;17.90;16.08;;;12.30;99.90;;;;;;4938082;28;90604;-31
2023/09/26 06:44:43;;;;;;;17.33;15.52;;;12.40;99.90;;;;;;4936610;28;90424;-32
2023/09/26 06:47:08;;;;;;;15.45;13.63;;;12.40;99.90;;;;;;4938314;28;90531;-31
2023/09/26 06:49:37;;;;;;;18.67;15.98;;;12.50;99.90;;;;;;4937749;28;88837;-40
2023/09/26 06:52:03;;;;;;;16.58;14.95;;;12.50;99.90;;;;;;4937024;28;89857;-35
2023/09/26 06:54:30;;;;;;;19.08;16.17;;;12.50;99.90;;;;;;4937880;28;90029;-34
2023/09/26 06:56:56;;;;;;;11.63;10.38;;;12.60;99.90;;;;;;4937780;28;89764;-38
2023/09/26 06:59:21;;;;;;;15.70;14.00;;;12.60;99.90;;;;;;4936963;28;87819;-34
2023/09/26 07:01:47;;;;;;;15.45;13.98;;;12.60;99.90;;;;;;4949915;28;88940;-38
2023/09/26 07:04:14;;;;;;;17.35;15.05;;;12.70;99.90;;;;;;4957230;28;89700;-34
2023/09/26 07:06:45;;;;;;;16.58;14.98;;;12.70;99.90;;;;;;4957282;28;89539;-35
2023/09/26 07:09:12;;;;;;;17.67;15.65;;;12.70;99.90;;;;;;4956069;28;88966;-34
2023/09/26 07:11:39;;;;;;;17.67;15.65;;;12.70;99.90;;;;;;4956764;28;89002;-35
2023/09/26 07:14:05;;;;;;;15.80;14.20;;;12.70;99.90;;;;;;4956252;28;89959;-38
2023/09/26 07:16:33;;;;;;;16.13;14.52;;;12.80;99.90;;;;;;4956572;28;90077;-36
2023/09/26 07:19:00;;;;;;;14.75;13.45;;;12.90;99.90;;;;;;4956271;28;90121;-35
2023/09/26 07:21:25;;;;;;;16.63;14.88;;;13.00;99.90;;;;;;4957180;28;90327;-37
2023/09/26 07:23:51;;;;;;;20.83;16.08;;;13.00;99.90;;;;;;4956199;28;90371;-37
2023/09/26 07:26:17;;;;;;;17.85;15.98;;;13.00;99.90;;;;;;4957124;28;89535;-30
2023/09/26 07:28:44;;;;;;;19.90;16.08;;;13.00;99.90;;;;;;4957080;28;88735;-40
2023/09/26 07:31:14;;;;;;;17.30;15.52;;;13.10;99.90;;;;;;4955956;28;90201;-33
2023/09/26 07:33:40;;;;;;;18.17;16.35;;;13.10;99.90;;;;;;4956424;28;90307;-32
2023/09/26 07:36:06;;;;;;;19.33;17.38;;;13.10;99.90;;;;;;4955831;28;91413;-37
2023/09/26 07:38:33;;;;;;;19.65;17.58;;;13.20;99.90;;;;;;4956635;28;89024;-34
2023/09/26 07:40:59;;;;;;;17.27;15.55;;;13.20;99.90;;;;;;4956188;28;89869;-35
2023/09/26 07:43:29;;;;;;;19.98;17.27;;;13.30;99.90;;;;;;4956645;28;90275;-33
2023/09/26 07:46:19;;;;;;;19.50;16.65;;;13.30;99.90;;;;;;4956241;28;89308;-30
2023/09/26 07:48:45;;;;;;;18.83;16.88;;;13.40;99.90;;;;;;4957418;28;88821;-36
2023/09/26 07:51:11;;;;;;;18.98;17.25;;;13.40;99.90;;;;;;4954931;28;90818;-40
2023/09/26 07:53:37;;;;;;;19.90;17.80;;;13.50;99.90;;;;;;4956654;28;89775;-35
2023/09/26 07:56:03;;;;;;;19.60;17.63;;;13.50;99.90;;;;;;4957208;28;89595;-37
2023/09/26 07:58:28;;;;;;;21.65;17.33;;;13.70;99.90;;;;;;4959786;28;89780;-39
2023/09/26 08:00:58;;;;;;;19.52;17.63;;;13.70;99.90;;;;;;4959930;28;90579;-40
2023/09/26 08:03:24;;;;;;;18.13;15.27;;;13.80;99.90;;;;;;4959722;28;89964;-34
2023/09/26 08:06:00;;;;;;;17.63;15.18;;;13.80;99.90;;;;;;4960384;28;89107;-33
2023/09/26 08:08:26;;;;;;;16.67;14.95;;;13.90;99.90;;;;;;4960502;28;89250;-37
2023/09/26 08:10:52;;;;;;;18.85;16.38;;;14.00;99.90;;;;;;4959619;28;90352;-37
2023/09/26 08:13:17;;;;;;;18.83;15.25;;;14.10;99.90;;;;;;4959364;28;89727;-34
2023/09/26 08:15:43;;;;;;;19.92;17.27;;;14.10;99.90;;;;;;4959433;28;89692;-33
2023/09/26 08:18:08;;;;;;;17.55;15.85;;;14.20;99.90;;;;;;4960004;28;89420;-34
2023/09/26 08:20:34;;;;;;;17.85;16.13;;;14.30;99.90;;;;;;4959008;28;90527;-34
2023/09/26 08:23:00;;;;;;;18.42;16.42;;;14.30;99.90;;;;;;4958299;28;90027;-34
2023/09/26 08:25:26;;;;;;;17.42;15.57;;;14.40;99.90;;;;;;4959556;28;90533;-33
2023/09/26 08:27:52;;;;;;;17.27;15.68;;;14.60;99.90;;;;;;4960300;28;88709;-37
2023/09/26 08:30:18;;;;;;;17.35;15.10;;;14.70;99.90;;;;;;4959469;28;90329;-33
2023/09/26 08:32:44;;;;;;;18.92;17.08;;;14.80;99.90;;;;;;4959105;28;89569;-35
2023/09/26 08:35:10;;;;;;;18.85;16.88;;;14.80;99.90;;;;;;4959384;28;89586;-40
2023/09/26 08:37:38;;;;;;;17.52;15.70;;;14.90;99.90;;;;;;4959435;28;89969;-32
2023/09/26 08:40:09;;;;;;;16.95;15.25;;;15.00;99.90;;;;;;4959401;28;89955;-34
2023/09/26 08:42:39;;;;;;;17.02;14.93;;;15.10;99.90;;;;;;4959186;28;89273;-35
2023/09/26 08:45:06;;;;;;;16.98;15.20;;;15.20;99.90;;;;;;4958482;28;89994;-36
2023/09/26 08:47:33;;;;;;;19.10;15.82;;;15.40;99.90;;;;;;4959354;28;90134;-32
2023/09/26 08:49:59;;;;;;;15.82;14.32;;;15.40;99.90;;;;;;4958563;28;90758;-38
2023/09/26 08:52:26;;;;;;;21.30;15.82;;;15.50;99.90;;;;;;4959541;28;89607;-33
2023/09/26 08:54:51;;;;;;;16.30;14.70;;;15.50;99.90;;;;;;4958384;28;89408;-34
2023/09/26 08:57:19;;;;;;;16.48;14.98;;;15.60;99.90;;;;;;4959495;28;89207;-34
2023/09/26 08:59:47;;;;;;;16.73;14.95;;;15.60;99.90;;;;;;4958904;28;90782;-32
2023/09/26 09:02:13;;;;;;;18.47;16.47;;;15.70;99.90;;;;;;4958136;28;89845;-34
2023/09/26 09:04:43;;;;;;;16.23;14.70;;;15.70;99.90;;;;;;4959497;28;89610;-32
2023/09/26 09:07:09;;;;;;;18.58;16.25;;;15.80;99.90;;;;;;4957095;28;88648;-35
2023/09/26 09:09:35;;;;;;;14.23;12.93;;;15.80;99.90;;;;;;4958895;28;90794;-36
2023/09/26 09:12:00;;;;;;;19.75;14.07;;;15.90;99.90;;;;;;4958980;28;90546;-32
2023/09/26 09:14:32;;;;;;;14.48;13.05;;;16.00;99.90;;;;;;4958930;28;90728;-32
2023/09/26 09:16:58;;;;;;;17.80;16.27;;;16.10;99.90;;;;;;4957638;28;88461;-35
2023/09/26 09:19:47;;;;;;;14.50;13.25;;;16.10;99.90;;;;;;4956650;28;89685;-31
2023/09/26 09:22:20;;;;;;;18.25;15.02;;;16.20;99.90;;;;;;4958132;28;90068;-36
2023/09/26 09:24:56;;;;;;;16.35;14.75;;;16.30;99.90;;;;;;4959078;28;89945;-33
2023/09/26 09:27:40;;;;;;;16.80;15.00;;;16.30;99.90;;;;;;4957707;28;89720;-33
2023/09/26 09:30:12;;;;;;;15.93;14.43;;;16.50;99.90;;;;;;4957521;28;89800;-35
2023/09/26 09:32:40;;;;;;;15.48;13.90;;;16.60;99.90;;;;;;4958836;28;89024;-35
2023/09/26 09:35:08;;;;;;;14.93;13.40;;;16.60;99.90;;;;;;4957627;28;89277;-35
2023/09/26 09:37:33;;;;;;;14.32;12.82;;;16.70;99.90;;;;;;4957593;28;89733;-34
2023/09/26 09:39:59;;;;;;;16.13;14.60;;;16.70;99.90;;;;;;4958621;28;90168;-33
2023/09/26 09:42:25;;;;;;;16.92;13.18;;;16.80;99.90;;;;;;4957986;28;89603;-32
2023/09/26 09:44:50;;;;;;;16.23;14.18;;;16.80;99.90;;;;;;4958757;28;89196;-31
2023/09/26 09:47:24;;;;;;;14.07;12.63;;;16.80;99.90;;;;;;4958589;28;89793;-32
2023/09/26 09:49:51;;;;;;;14.27;12.85;;;16.80;99.90;;;;;;4957242;28;90390;-31
2023/09/26 09:52:19;;;;;;;17.65;13.52;;;16.80;99.90;;;;;;4958922;28;89825;-36
2023/09/26 09:54:46;;;;;;;13.77;12.40;;;16.90;99.90;;;;;;4958852;28;89338;-36
2023/09/26 09:57:14;;;;;;;13.52;12.32;;;17.00;99.90;;;;;;4957700;28;88463;-40
2023/09/26 09:59:42;;;;;;;13.40;12.07;;;17.00;99.90;;;;;;4958537;28;90571;-37
2023/09/26 10:02:10;;;;;;;14.88;11.07;;;17.10;99.90;;;;;;4958001;28;91047;-35
2023/09/26 10:04:39;;;;;;;15.13;13.43;;;17.20;99.90;;;;;;4957041;28;90484;-34
2023/09/26 10:07:05;;;;;;;13.63;12.20;;;17.30;99.90;;;;;;4957325;28;89516;-33
2023/09/26 10:09:35;;;;;;;13.35;12.15;;;17.40;99.90;;;;;;4958776;28;89958;-34
2023/09/26 10:12:01;;;;;;;14.32;12.82;;;17.40;99.90;;;;;;4957198;28;89969;-36
2023/09/26 10:14:30;;;;;;;12.15;10.98;;;17.50;99.90;;;;;;4958037;28;88488;-36
2023/09/26 10:16:57;;;;;;;14.65;13.20;;;17.60;99.90;;;;;;4958708;28;88953;-39
2023/09/26 10:19:25;;;;;;;13.35;11.95;;;17.60;99.90;;;;;;4956185;28;90299;-32
2023/09/26 10:21:52;;;;;;;14.70;12.48;;;17.70;99.90;;;;;;4957508;28;89605;-33
2023/09/26 10:24:18;;;;;;;16.67;13.15;;;17.80;99.90;;;;;;4957988;28;89637;-32
2023/09/26 10:26:47;;;;;;;14.68;13.25;;;17.70;99.90;;;;;;4955717;28;90516;-32
2023/09/26 10:29:25;;;;;;;13.82;12.43;;;17.80;99.90;;;;;;4957535;28;88616;-37
2023/09/26 10:32:04;;;;;;;13.77;11.83;;;17.90;99.90;;;;;;4957717;28;90164;-35
2023/09/26 10:34:36;;;;;;;12.93;11.75;;;18.10;99.90;;;;;;4957395;28;89505;-36
2023/09/26 10:37:14;;;;;;;13.23;11.85;;;18.20;99.90;;;;;;4957114;28;90190;-33
2023/09/26 10:39:41;;;;;;;12.93;11.75;;;18.20;99.90;;;;;;4957587;28;90310;-36
2023/09/26 10:42:22;;;;;;;13.02;11.60;;;18.20;99.90;;;;;;4956771;28;89244;-38
2023/09/26 10:44:50;;;;;;;15.75;12.00;;;18.30;99.90;;;;;;4957892;28;89814;-37
2023/09/26 10:47:22;;;;;;;13.65;12.32;;;18.40;99.90;;;;;;4957506;28;88226;-35
2023/09/26 10:49:47;;;;;;;12.57;11.27;;;18.40;99.90;;;;;;4957492;28;90184;-36
2023/09/26 10:52:14;;;;;;;14.18;12.65;;;18.50;99.90;;;;;;4955985;28;92810;-37
2023/09/26 10:54:41;;;;;;;12.65;11.45;;;18.60;99.90;;;;;;4957455;28;88774;-38
2023/09/26 10:57:20;;;;;;;15.02;12.65;;;18.60;99.90;;;;;;4956278;28;89103;-34
2023/09/26 10:59:46;;;;;;;11.60;10.48;;;18.60;99.90;;;;;;4957511;28;89393;-32
2023/09/26 11:02:12;;;;;;;18.92;11.82;;;18.70;99.90;;;;;;4956645;28;89485;-37
2023/09/26 11:04:38;;;;;;;13.30;10.70;;;18.70;99.90;;;;;;4956501;28;89672;-34
2023/09/26 11:07:05;;;;;;;12.93;11.70;;;18.70;99.90;;;;;;4957158;28;89377;-35
2023/09/26 11:09:33;;;;;;;12.82;10.98;;;18.70;99.90;;;;;;4956906;28;90575;-33
2023/09/26 11:12:00;;;;;;;14.05;12.70;;;18.80;99.90;;;;;;4955245;28;90276;-31
2023/09/26 11:14:29;;;;;;;12.15;10.15;;;18.80;99.90;;;;;;4955296;28;89512;-33
2023/09/26 11:16:54;;;;;;;14.23;10.30;;;18.90;99.90;;;;;;4938087;28;90455;-36
2023/09/26 11:19:24;;;;;;;11.25;10.10;;;18.90;99.90;;;;;;4936126;28;90007;-33
2023/09/26 11:21:49;;;;;;;11.50;10.48;;;19.00;99.90;;;;;;4935679;28;89919;-34
2023/09/26 11:24:19;;;;;;;14.35;12.85;;;19.10;99.90;;;;;;4936281;28;90016;-34
2023/09/26 11:26:45;;;;;;;14.25;10.07;;;19.10;99.90;;;;;;4936355;28;89329;-34
2023/09/26 11:29:12;;;;;;;10.68;9.68;;;19.20;99.90;;;;;;4934821;28;91718;-33
2023/09/26 11:31:39;;;;;;;11.70;9.80;;;19.20;99.90;;;;;;4935767;28;88545;-32
2023/09/26 11:34:05;;;;;;;10.38;9.38;;;19.30;99.90;;;;;;4936912;28;89141;-31
2023/09/26 11:36:31;;;;;;;11.02;9.63;;;19.40;99.90;;;;;;4937277;28;89794;-33
2023/09/26 11:38:59;;;;;;;10.82;9.23;;;19.50;99.90;;;;;;4937056;28;90207;-36
2023/09/26 11:41:25;;;;;;;9.88;8.88;;;19.60;99.90;;;;;;4936119;28;91093;-39
2023/09/26 11:43:52;;;;;;;11.05;9.32;;;19.60;99.90;;;;;;4937047;28;90500;-31
2023/09/26 11:46:18;;;;;;;10.10;8.98;;;19.70;99.90;;;;;;4938717;28;88999;-31
2023/09/26 11:48:48;;;;;;;12.90;9.38;;;19.70;99.90;;;;;;4936336;28;90901;-34
2023/09/26 11:51:14;;;;;;;8.70;7.85;;;19.70;99.90;;;;;;4937061;28;89904;-34
2023/09/26 11:53:40;;;;;;;8.02;6.75;;;19.80;99.90;;;;;;4937075;28;89557;-35
2023/09/26 11:56:09;;;;;;;8.27;6.90;;;19.80;99.90;;;;;;4936490;28;88901;-36
2023/09/26 11:58:36;;;;;;;8.27;6.75;;;19.90;99.90;;;;;;4937689;28;90242;-33
2023/09/26 12:01:02;;;;;;;6.43;5.82;;;19.90;99.90;;;;;;4936792;28;89988;-35
2023/09/26 12:03:29;;;;;;;7.25;6.55;;;20.00;99.90;;;;;;4936322;28;89869;-34
2023/09/26 12:05:55;;;;;;;6.60;5.95;;;20.00;99.90;;;;;;4936764;28;90235;-33
2023/09/26 12:08:21;;;;;;;5.82;5.32;;;20.00;99.90;;;;;;4937569;28;90582;-32
2023/09/26 12:10:46;;;;;;;7.68;6.97;;;20.00;99.90;;;;;;4936089;28;90507;-34
2023/09/26 12:13:12;;;;;;;6.38;5.78;;;20.10;99.90;;;;;;4937005;28;89468;-33
2023/09/26 12:15:38;;;;;;;6.43;5.93;;;20.00;99.90;;;;;;4936959;28;89376;-33
2023/09/26 12:18:03;;;;;;;7.82;5.97;;;20.10;99.90;;;;;;4937077;28;90220;-31
2023/09/26 12:20:29;;;;;;;9.80;6.13;;;20.10;99.90;;;;;;4936776;28;90301;-37
2023/09/26 12:22:56;;;;;;;5.20;4.80;;;20.10;99.90;;;;;;4936097;28;90081;-34
2023/09/26 12:25:24;;;;;;;5.43;4.55;;;20.20;99.90;;;;;;4936049;28;88181;-39
2023/09/26 12:27:50;;;;;;;6.03;5.45;;;20.30;99.90;;;;;;4936818;28;90165;-36